BAW26 VCBI-VHHX
Flight info
| Callsign | BAW26 |
|---|---|
| Flight time | N/A |
| Altitude | 31000 |
| Route | ATETA1D ATETA M300 ESPAP P762 PPB/N0510F330 P762 DWI L877 MIGAR L524 BKK W1 KRT B460 SAV A202 VILAO/K0933F350 A202 ASSAD/K0933S1070 A202 SIKOU/N0502F351 |
| Aircraft | B742/H-SDFHIRWXY/L |
Departure
| Time | 2026-05-09 01:51 |
|---|---|
| Airport | Bandaranaike International Colombo Airport (VCBI) |
Arrival
| Time | N/A |
|---|---|
| Airport | Hong Kong International Airport Kai Tak (VHHX) |
| Time | Latitude | Longitude | Altitude | Speed | Heading |
|---|---|---|---|---|---|
| 2026-05-09 01:30 | 7.17738 | 79.88435 | 48 ft | 0 kts | 220° |
| 2026-05-09 01:38 | 7.17739 | 79.88435 | 48 ft | 0 kts | 220° |
| 2026-05-09 01:39 | 7.17742 | 79.88438 | 48 ft | 2 kts | 217° |
| 2026-05-09 01:39 | 7.17754 | 79.88446 | 48 ft | 2 kts | 212° |
| 2026-05-09 01:39 | 7.17767 | 79.88454 | 49 ft | 2 kts | 214° |
| 2026-05-09 01:39 | 7.17779 | 79.88463 | 49 ft | 2 kts | 214° |
| 2026-05-09 01:40 | 7.17792 | 79.88471 | 49 ft | 2 kts | 214° |
| 2026-05-09 01:40 | 7.17804 | 79.88480 | 49 ft | 2 kts | 221° |
| 2026-05-09 01:40 | 7.17811 | 79.88492 | 49 ft | 2 kts | 258° |
| 2026-05-09 01:40 | 7.17810 | 79.88506 | 50 ft | 2 kts | 292° |
| 2026-05-09 01:41 | 7.17805 | 79.88513 | 50 ft | 0 kts | 307° |
| 2026-05-09 01:43 | 7.17807 | 79.88512 | 50 ft | 2 kts | 307° |
| 2026-05-09 01:43 | 7.17847 | 79.88460 | 48 ft | 15 kts | 312° |
| 2026-05-09 01:43 | 7.17942 | 79.88473 | 46 ft | 16 kts | 39° |
| 2026-05-09 01:44 | 7.18055 | 79.88559 | 47 ft | 23 kts | 37° |
| 2026-05-09 01:44 | 7.18151 | 79.88633 | 49 ft | 11 kts | 38° |
| 2026-05-09 01:44 | 7.18207 | 79.88676 | 49 ft | 9 kts | 38° |
| 2026-05-09 01:44 | 7.18255 | 79.88713 | 48 ft | 7 kts | 38° |
| 2026-05-09 01:45 | 7.18292 | 79.88742 | 48 ft | 5 kts | 38° |
| 2026-05-09 01:45 | 7.18317 | 79.88761 | 48 ft | 4 kts | 37° |
| 2026-05-09 01:45 | 7.18370 | 79.88802 | 48 ft | 13 kts | 37° |
| 2026-05-09 01:45 | 7.18445 | 79.88858 | 48 ft | 12 kts | 37° |
| 2026-05-09 01:46 | 7.18524 | 79.88918 | 49 ft | 15 kts | 38° |
| 2026-05-09 01:46 | 7.18621 | 79.88993 | 47 ft | 19 kts | 38° |
| 2026-05-09 01:46 | 7.18742 | 79.89085 | 46 ft | 22 kts | 34° |
| 2026-05-09 01:46 | 7.18866 | 79.89181 | 43 ft | 21 kts | 37° |
| 2026-05-09 01:47 | 7.18980 | 79.89269 | 43 ft | 19 kts | 37° |
| 2026-05-09 01:47 | 7.19085 | 79.89349 | 42 ft | 17 kts | 35° |
| 2026-05-09 01:47 | 7.19180 | 79.89415 | 41 ft | 14 kts | 15° |
| 2026-05-09 01:47 | 7.19253 | 79.89383 | 41 ft | 7 kts | 307° |
| 2026-05-09 01:48 | 7.19279 | 79.89346 | 43 ft | 6 kts | 304° |
| 2026-05-09 01:48 | 7.19304 | 79.89310 | 44 ft | 6 kts | 304° |
| 2026-05-09 01:48 | 7.19305 | 79.89284 | 44 ft | 2 kts | 224° |
| 2026-05-09 01:48 | 7.19302 | 79.89282 | 44 ft | 0 kts | 214° |
| 2026-05-09 01:49 | 7.19280 | 79.89266 | 44 ft | 20 kts | 216° |
| 2026-05-09 01:50 | 7.19015 | 79.89064 | 47 ft | 74 kts | 218° |
| 2026-05-09 01:50 | 7.18460 | 79.88641 | 47 ft | 124 kts | 218° |
| 2026-05-09 01:50 | 7.17633 | 79.88007 | 42 ft | 169 kts | 217° |
| 2026-05-09 01:50 | 7.16636 | 79.87225 | 266 ft | 186 kts | 224° |
| 2026-05-09 01:51 | 7.16070 | 79.86070 | 591 ft | 193 kts | 269° |
| 2026-05-09 01:51 | 7.16487 | 79.84759 | 991 ft | 203 kts | 311° |
| 2026-05-09 01:51 | 7.17684 | 79.83979 | 1460 ft | 207 kts | 338° |
| 2026-05-09 01:51 | 7.18933 | 79.83341 | 1933 ft | 210 kts | 317° |
| 2026-05-09 01:52 | 7.19672 | 79.82099 | 2401 ft | 208 kts | 275° |
| 2026-05-09 01:52 | 7.19583 | 79.80671 | 2920 ft | 206 kts | 255° |
| 2026-05-09 01:52 | 7.19339 | 79.79234 | 3239 ft | 214 kts | 267° |
| 2026-05-09 01:52 | 7.19721 | 79.77775 | 3372 ft | 222 kts | 306° |
| 2026-05-09 01:53 | 7.20957 | 79.76823 | 3501 ft | 227 kts | 345° |
| 2026-05-09 01:53 | 7.22525 | 79.76814 | 3632 ft | 229 kts | 22° |
| 2026-05-09 01:53 | 7.23805 | 79.77766 | 3759 ft | 231 kts | 59° |
| 2026-05-09 01:53 | 7.24509 | 79.79220 | 3899 ft | 237 kts | 68° |
| 2026-05-09 01:54 | 7.25330 | 79.80718 | 4028 ft | 247 kts | 50° |
| 2026-05-09 01:54 | 7.26645 | 79.81899 | 4154 ft | 258 kts | 39° |
| 2026-05-09 01:54 | 7.28009 | 79.83117 | 4269 ft | 267 kts | 48° |
| 2026-05-09 01:54 | 7.29297 | 79.84521 | 4393 ft | 280 kts | 49° |
| 2026-05-09 01:55 | 7.30653 | 79.85993 | 4799 ft | 283 kts | 48° |
| 2026-05-09 01:55 | 7.32005 | 79.87437 | 5301 ft | 282 kts | 47° |
| 2026-05-09 01:55 | 7.33371 | 79.88885 | 5720 ft | 284 kts | 47° |
| 2026-05-09 01:55 | 7.34795 | 79.90269 | 6129 ft | 286 kts | 38° |
| 2026-05-09 01:56 | 7.36603 | 79.91128 | 6471 ft | 290 kts | 13° |
| 2026-05-09 01:56 | 7.38604 | 79.91410 | 6892 ft | 291 kts | 5° |
| 2026-05-09 01:56 | 7.40655 | 79.91528 | 7288 ft | 293 kts | 3° |
| 2026-05-09 01:56 | 7.42708 | 79.91596 | 7698 ft | 294 kts | 3° |
| 2026-05-09 01:57 | 7.44771 | 79.91653 | 8114 ft | 295 kts | 3° |
| 2026-05-09 01:57 | 7.46827 | 79.91709 | 8515 ft | 297 kts | 3° |
| 2026-05-09 01:57 | 7.48905 | 79.91768 | 8910 ft | 298 kts | 3° |
| 2026-05-09 01:57 | 7.50988 | 79.91826 | 9316 ft | 300 kts | 3° |
| 2026-05-09 01:58 | 7.53099 | 79.91884 | 9706 ft | 302 kts | 4° |
| 2026-05-09 01:58 | 7.55224 | 79.91945 | 9997 ft | 308 kts | 4° |
| 2026-05-09 01:58 | 7.57421 | 79.92007 | 10117 ft | 320 kts | 4° |
| 2026-05-09 01:58 | 7.59701 | 79.92073 | 10234 ft | 333 kts | 3° |
| 2026-05-09 01:59 | 7.62072 | 79.92139 | 10348 ft | 346 kts | 3° |
| 2026-05-09 01:59 | 7.64553 | 79.92208 | 10464 ft | 358 kts | 4° |
| 2026-05-09 01:59 | 7.67099 | 79.92280 | 10577 ft | 371 kts | 3° |
| 2026-05-09 01:59 | 7.69740 | 79.92353 | 10691 ft | 384 kts | 3° |
| 2026-05-09 02:00 | 7.72444 | 79.92428 | 10900 ft | 393 kts | 3° |
| 2026-05-09 02:00 | 7.75206 | 79.92503 | 11440 ft | 392 kts | 4° |
| 2026-05-09 02:00 | 7.77938 | 79.92578 | 11880 ft | 394 kts | 4° |
| 2026-05-09 02:00 | 7.80701 | 79.92654 | 12233 ft | 399 kts | 4° |
| 2026-05-09 02:01 | 7.83528 | 79.92710 | 12520 ft | 405 kts | 1° |
| 2026-05-09 02:01 | 7.86375 | 79.92558 | 12805 ft | 413 kts | 356° |
| 2026-05-09 02:01 | 7.89263 | 79.92198 | 13091 ft | 420 kts | 353° |
| 2026-05-09 02:01 | 7.92181 | 79.91715 | 13377 ft | 426 kts | 352° |
| 2026-05-09 02:02 | 7.95116 | 79.91175 | 13759 ft | 429 kts | 351° |
| 2026-05-09 02:02 | 7.98098 | 79.90608 | 14190 ft | 430 kts | 351° |
| 2026-05-09 02:02 | 8.01045 | 79.90044 | 14569 ft | 433 kts | 351° |
| 2026-05-09 02:02 | 8.04023 | 79.89475 | 14986 ft | 435 kts | 351° |
| 2026-05-09 02:03 | 8.06999 | 79.88908 | 15325 ft | 438 kts | 351° |
| 2026-05-09 02:03 | 8.10039 | 79.88329 | 15726 ft | 440 kts | 351° |
| 2026-05-09 02:03 | 8.13061 | 79.87756 | 16100 ft | 442 kts | 351° |
| 2026-05-09 02:03 | 8.16118 | 79.87176 | 16497 ft | 444 kts | 351° |
| 2026-05-09 02:04 | 8.19199 | 79.86591 | 16693 ft | 451 kts | 351° |
| 2026-05-09 02:04 | 8.22327 | 79.85998 | 16788 ft | 460 kts | 351° |
| 2026-05-09 02:04 | 8.25513 | 79.85394 | 16856 ft | 470 kts | 351° |
| 2026-05-09 02:04 | 8.28800 | 79.84770 | 16867 ft | 481 kts | 351° |
| 2026-05-09 02:05 | 8.32118 | 79.84141 | 16911 ft | 491 kts | 351° |
| 2026-05-09 02:05 | 8.35521 | 79.83495 | 17286 ft | 491 kts | 351° |
| 2026-05-09 02:05 | 8.38885 | 79.82855 | 17658 ft | 492 kts | 351° |
| 2026-05-09 02:05 | 8.42271 | 79.82210 | 17980 ft | 494 kts | 351° |
| 2026-05-09 02:06 | 8.45664 | 79.81564 | 18273 ft | 497 kts | 351° |
| 2026-05-09 02:06 | 8.49094 | 79.80911 | 18556 ft | 499 kts | 351° |
| 2026-05-09 02:06 | 8.52519 | 79.80260 | 18881 ft | 501 kts | 351° |
| 2026-05-09 02:07 | 8.59452 | 79.78941 | 19435 ft | 505 kts | 351° |
| 2026-05-09 02:07 | 8.62903 | 79.78284 | 19695 ft | 507 kts | 351° |
| 2026-05-09 02:07 | 8.66410 | 79.77618 | 19813 ft | 513 kts | 351° |
| 2026-05-09 02:07 | 8.69982 | 79.76937 | 19928 ft | 518 kts | 351° |
| 2026-05-09 02:08 | 8.73538 | 79.76260 | 20040 ft | 522 kts | 351° |
| 2026-05-09 02:08 | 8.77163 | 79.75570 | 20154 ft | 526 kts | 351° |
| 2026-05-09 02:08 | 8.80763 | 79.74884 | 20303 ft | 529 kts | 351° |
| 2026-05-09 02:08 | 8.84425 | 79.74185 | 20519 ft | 530 kts | 351° |
| 2026-05-09 02:09 | 8.88051 | 79.73494 | 20715 ft | 532 kts | 351° |
| 2026-05-09 02:09 | 8.91709 | 79.72797 | 20893 ft | 533 kts | 350° |
| 2026-05-09 02:09 | 8.95361 | 79.72100 | 21069 ft | 535 kts | 350° |
| 2026-05-09 02:09 | 8.99062 | 79.71394 | 21274 ft | 535 kts | 350° |
| 2026-05-09 02:10 | 9.02721 | 79.70695 | 21502 ft | 535 kts | 350° |
| 2026-05-09 02:10 | 9.06386 | 79.69995 | 21789 ft | 533 kts | 350° |
| 2026-05-09 02:10 | 9.10041 | 79.69298 | 22095 ft | 531 kts | 350° |
| 2026-05-09 02:10 | 9.13721 | 79.68595 | 22380 ft | 530 kts | 350° |
| 2026-05-09 02:11 | 9.17355 | 79.67902 | 22642 ft | 529 kts | 350° |
| 2026-05-09 02:11 | 9.20970 | 79.67210 | 22884 ft | 529 kts | 350° |
| 2026-05-09 02:11 | 9.24599 | 79.66517 | 23076 ft | 529 kts | 350° |
| 2026-05-09 02:11 | 9.28266 | 79.65816 | 23242 ft | 530 kts | 350° |
| 2026-05-09 02:12 | 9.31798 | 79.65153 | 23519 ft | 528 kts | 352° |
| 2026-05-09 02:12 | 9.35429 | 79.64826 | 23762 ft | 526 kts | 1° |
| 2026-05-09 02:12 | 9.39096 | 79.65207 | 23993 ft | 524 kts | 12° |
| 2026-05-09 02:12 | 9.42556 | 79.66278 | 24201 ft | 522 kts | 24° |
| 2026-05-09 02:13 | 9.45783 | 79.68033 | 24413 ft | 521 kts | 35° |
| 2026-05-09 02:13 | 9.48562 | 79.70359 | 24646 ft | 519 kts | 46° |
| 2026-05-09 02:13 | 9.50784 | 79.73095 | 24782 ft | 520 kts | 56° |
| 2026-05-09 02:13 | 9.52521 | 79.76286 | 24952 ft | 519 kts | 65° |
| 2026-05-09 02:14 | 9.53724 | 79.79767 | 25111 ft | 520 kts | 77° |
| 2026-05-09 02:14 | 9.54222 | 79.83373 | 25231 ft | 521 kts | 88° |
| 2026-05-09 02:14 | 9.54004 | 79.87019 | 25439 ft | 520 kts | 99° |
| 2026-05-09 02:14 | 9.53082 | 79.90569 | 25595 ft | 521 kts | 110° |
| 2026-05-09 02:15 | 9.51586 | 79.93918 | 25793 ft | 521 kts | 116° |
| 2026-05-09 02:15 | 9.49916 | 79.97163 | 26021 ft | 520 kts | 117° |
| 2026-05-09 02:15 | 9.48251 | 80.00445 | 26241 ft | 519 kts | 116° |
| 2026-05-09 02:15 | 9.46676 | 80.03728 | 26477 ft | 518 kts | 115° |
| 2026-05-09 02:16 | 9.45173 | 80.07026 | 26669 ft | 517 kts | 114° |
| 2026-05-09 02:16 | 9.43705 | 80.10362 | 26805 ft | 518 kts | 113° |
| 2026-05-09 02:16 | 9.42262 | 80.13702 | 26949 ft | 519 kts | 113° |
| 2026-05-09 02:16 | 9.40819 | 80.17063 | 27073 ft | 520 kts | 112° |
| 2026-05-09 02:17 | 9.39364 | 80.20458 | 27144 ft | 522 kts | 113° |
| 2026-05-09 02:17 | 9.37914 | 80.23840 | 27295 ft | 522 kts | 113° |
| 2026-05-09 02:17 | 9.36464 | 80.27214 | 27439 ft | 523 kts | 113° |
| 2026-05-09 02:17 | 9.35005 | 80.30606 | 27500 ft | 525 kts | 114° |
| 2026-05-09 02:18 | 9.33548 | 80.33990 | 27682 ft | 524 kts | 114° |
| 2026-05-09 02:18 | 9.32095 | 80.37361 | 27931 ft | 521 kts | 113° |
| 2026-05-09 02:18 | 9.30648 | 80.40715 | 28143 ft | 520 kts | 113° |
| 2026-05-09 02:18 | 9.29202 | 80.44067 | 28374 ft | 518 kts | 113° |
| 2026-05-09 02:19 | 9.27775 | 80.47376 | 28866 ft | 510 kts | 113° |
| 2026-05-09 02:19 | 9.24920 | 80.54000 | 28945 ft | 515 kts | 114° |
| 2026-05-09 02:19 | 9.23489 | 80.57317 | 29222 ft | 511 kts | 114° |
| 2026-05-09 02:20 | 9.22061 | 80.60628 | 29451 ft | 509 kts | 114° |
| 2026-05-09 02:20 | 9.20657 | 80.63878 | 29679 ft | 508 kts | 114° |
| 2026-05-09 02:20 | 9.19244 | 80.67149 | 29790 ft | 508 kts | 114° |
| 2026-05-09 02:21 | 9.16385 | 80.73759 | 30110 ft | 507 kts | 114° |
| 2026-05-09 02:21 | 9.14987 | 80.76993 | 30291 ft | 506 kts | 114° |
| 2026-05-09 02:21 | 9.13562 | 80.80285 | 30484 ft | 504 kts | 114° |
| 2026-05-09 02:21 | 9.12165 | 80.83515 | 30659 ft | 503 kts | 114° |
| 2026-05-09 02:22 | 9.10767 | 80.86745 | 30810 ft | 503 kts | 114° |
| 2026-05-09 02:22 | 9.09357 | 80.90001 | 30934 ft | 503 kts | 114° |
| 2026-05-09 02:22 | 9.07952 | 80.93248 | 31081 ft | 502 kts | 114° |
| 2026-05-09 02:22 | 9.06555 | 80.96473 | 31211 ft | 502 kts | 114° |
| 2026-05-09 02:23 | 9.05145 | 80.99728 | 31340 ft | 502 kts | 114° |
| 2026-05-09 02:23 | 9.03749 | 81.02949 | 31477 ft | 501 kts | 114° |
| 2026-05-09 02:23 | 9.02347 | 81.06184 | 31619 ft | 501 kts | 114° |
| 2026-05-09 02:23 | 9.00957 | 81.09390 | 31741 ft | 501 kts | 114° |
| 2026-05-09 02:24 | 8.99552 | 81.12630 | 31906 ft | 499 kts | 114° |
| 2026-05-09 02:24 | 8.98154 | 81.15852 | 32018 ft | 500 kts | 114° |
| 2026-05-09 02:24 | 8.96755 | 81.19076 | 32120 ft | 500 kts | 114° |
| 2026-05-09 02:24 | 8.95358 | 81.22293 | 32257 ft | 499 kts | 114° |
| 2026-05-09 02:25 | 8.93947 | 81.25543 | 32375 ft | 499 kts | 114° |
| 2026-05-09 02:25 | 8.92557 | 81.28742 | 32504 ft | 499 kts | 114° |
| 2026-05-09 02:25 | 8.91155 | 81.31971 | 32664 ft | 498 kts | 114° |
| 2026-05-09 02:25 | 8.89777 | 81.35140 | 32813 ft | 498 kts | 114° |
| 2026-05-09 02:26 | 8.88363 | 81.38396 | 32814 ft | 499 kts | 114° |
| 2026-05-09 02:26 | 8.85573 | 81.44810 | 32812 ft | 498 kts | 114° |
| 2026-05-09 02:27 | 8.82789 | 81.51209 | 32811 ft | 497 kts | 114° |
| 2026-05-09 02:27 | 8.79997 | 81.57623 | 32817 ft | 497 kts | 114° |
| 2026-05-09 02:28 | 8.77217 | 81.64007 | 32818 ft | 498 kts | 114° |
| 2026-05-09 02:28 | 8.74407 | 81.70456 | 32824 ft | 498 kts | 114° |
| 2026-05-09 02:29 | 8.71620 | 81.76847 | 32830 ft | 498 kts | 114° |
| 2026-05-09 02:29 | 8.68828 | 81.83248 | 32831 ft | 497 kts | 114° |
| 2026-05-09 02:30 | 8.66029 | 81.89659 | 32829 ft | 497 kts | 114° |
| 2026-05-09 02:30 | 8.63246 | 81.96031 | 32830 ft | 498 kts | 114° |
| 2026-05-09 02:31 | 8.60437 | 82.02460 | 32830 ft | 499 kts | 114° |
| 2026-05-09 02:31 | 8.57620 | 82.08904 | 32830 ft | 499 kts | 114° |
| 2026-05-09 02:32 | 8.54816 | 82.15314 | 32830 ft | 499 kts | 114° |
| 2026-05-09 02:32 | 8.52022 | 82.21699 | 32830 ft | 498 kts | 114° |
| 2026-05-09 02:33 | 8.49221 | 82.28097 | 32829 ft | 496 kts | 114° |
| 2026-05-09 02:33 | 8.46428 | 82.34470 | 32830 ft | 497 kts | 114° |
| 2026-05-09 02:34 | 8.43623 | 82.40869 | 32830 ft | 500 kts | 114° |
| 2026-05-09 02:34 | 8.40795 | 82.47318 | 32829 ft | 499 kts | 114° |
| 2026-05-09 02:35 | 8.38002 | 82.53683 | 32829 ft | 497 kts | 114° |
| 2026-05-09 02:35 | 8.35187 | 82.60096 | 32830 ft | 497 kts | 114° |
| 2026-05-09 02:36 | 8.32394 | 82.66457 | 32830 ft | 498 kts | 114° |
| 2026-05-09 02:36 | 8.29581 | 82.72857 | 32830 ft | 497 kts | 114° |
| 2026-05-09 02:37 | 8.26772 | 82.79247 | 32829 ft | 496 kts | 114° |
| 2026-05-09 02:37 | 8.24587 | 82.85818 | 32829 ft | 496 kts | 98° |
| 2026-05-09 02:37 | 8.24461 | 82.89301 | 32830 ft | 497 kts | 86° |
| 2026-05-09 02:38 | 8.24981 | 82.92754 | 32832 ft | 499 kts | 78° |
| 2026-05-09 02:38 | 8.26959 | 82.99474 | 32834 ft | 501 kts | 72° |
| 2026-05-09 02:39 | 8.29282 | 83.06111 | 32838 ft | 501 kts | 71° |
| 2026-05-09 02:39 | 8.31594 | 83.12717 | 32840 ft | 500 kts | 71° |
| 2026-05-09 02:40 | 8.33885 | 83.19358 | 32843 ft | 500 kts | 71° |
| 2026-05-09 02:40 | 8.36155 | 83.25976 | 32844 ft | 501 kts | 72° |
| 2026-05-09 02:41 | 8.38443 | 83.32656 | 32844 ft | 502 kts | 72° |
| 2026-05-09 02:41 | 8.40723 | 83.39315 | 32840 ft | 501 kts | 71° |
| 2026-05-09 02:42 | 8.42989 | 83.45940 | 32838 ft | 499 kts | 71° |
| 2026-05-09 02:42 | 8.45251 | 83.52554 | 32838 ft | 499 kts | 71° |
| 2026-05-09 02:43 | 8.47519 | 83.59190 | 32834 ft | 499 kts | 71° |
| 2026-05-09 02:43 | 8.49789 | 83.65839 | 32833 ft | 499 kts | 71° |
| 2026-05-09 02:44 | 8.52049 | 83.72457 | 32830 ft | 499 kts | 71° |
| 2026-05-09 02:44 | 8.54305 | 83.79071 | 32829 ft | 498 kts | 71° |
| 2026-05-09 02:45 | 8.56560 | 83.85686 | 32830 ft | 498 kts | 71° |
| 2026-05-09 02:45 | 8.58823 | 83.92329 | 32830 ft | 498 kts | 71° |
| 2026-05-09 02:46 | 8.61073 | 83.98935 | 32830 ft | 497 kts | 71° |
| 2026-05-09 02:46 | 8.63333 | 84.05577 | 32829 ft | 497 kts | 71° |
| 2026-05-09 02:47 | 8.65568 | 84.12151 | 32830 ft | 498 kts | 71° |
| 2026-05-09 02:47 | 8.67823 | 84.18787 | 32831 ft | 498 kts | 71° |
| 2026-05-09 02:48 | 8.70073 | 84.25411 | 32829 ft | 497 kts | 71° |
| 2026-05-09 02:48 | 8.72318 | 84.32022 | 32829 ft | 497 kts | 71° |
| 2026-05-09 02:49 | 8.74566 | 84.38650 | 32829 ft | 498 kts | 71° |
| 2026-05-09 02:49 | 8.76808 | 84.45263 | 32828 ft | 498 kts | 71° |
| 2026-05-09 02:50 | 8.79054 | 84.51893 | 32832 ft | 497 kts | 71° |
| 2026-05-09 02:50 | 8.81295 | 84.58514 | 32841 ft | 496 kts | 71° |
| 2026-05-09 02:51 | 8.83535 | 84.65133 | 32849 ft | 497 kts | 71° |
| 2026-05-09 02:51 | 8.85777 | 84.71763 | 32850 ft | 499 kts | 72° |
| 2026-05-09 02:52 | 8.88024 | 84.78404 | 32849 ft | 499 kts | 72° |
| 2026-05-09 02:52 | 8.90274 | 84.85002 | 32850 ft | 497 kts | 71° |
| 2026-05-09 02:53 | 8.92552 | 84.91646 | 32850 ft | 496 kts | 71° |
| 2026-05-09 02:53 | 8.94807 | 84.98225 | 32851 ft | 498 kts | 71° |
| 2026-05-09 02:54 | 8.97087 | 85.04881 | 32851 ft | 499 kts | 71° |
| 2026-05-09 02:54 | 8.99349 | 85.11486 | 32851 ft | 498 kts | 71° |
| 2026-05-09 02:55 | 9.01619 | 85.18119 | 32851 ft | 497 kts | 71° |
| 2026-05-09 02:55 | 9.03879 | 85.24731 | 32852 ft | 498 kts | 71° |
| 2026-05-09 02:56 | 9.06142 | 85.31351 | 32852 ft | 499 kts | 71° |
| 2026-05-09 02:56 | 9.08409 | 85.37992 | 32851 ft | 498 kts | 71° |
| 2026-05-09 02:57 | 9.10664 | 85.44600 | 32852 ft | 497 kts | 71° |
| 2026-05-09 02:57 | 9.12917 | 85.51207 | 32851 ft | 497 kts | 71° |
| 2026-05-09 02:58 | 9.15174 | 85.57830 | 32851 ft | 498 kts | 71° |
| 2026-05-09 02:58 | 9.17440 | 85.64482 | 32847 ft | 499 kts | 71° |
| 2026-05-09 02:59 | 9.19698 | 85.71117 | 32844 ft | 498 kts | 71° |
| 2026-05-09 02:59 | 9.21960 | 85.77768 | 32849 ft | 498 kts | 71° |
| 2026-05-09 03:00 | 9.24214 | 85.84396 | 32850 ft | 499 kts | 71° |
| 2026-05-09 03:00 | 9.26505 | 85.91026 | 32851 ft | 500 kts | 70° |
| 2026-05-09 03:01 | 9.28830 | 85.97662 | 32851 ft | 499 kts | 70° |
| 2026-05-09 03:01 | 9.31149 | 86.04265 | 32851 ft | 498 kts | 70° |
| 2026-05-09 03:02 | 9.33486 | 86.10920 | 32852 ft | 498 kts | 70° |
| 2026-05-09 03:02 | 9.35795 | 86.17503 | 32857 ft | 498 kts | 70° |
| 2026-05-09 03:03 | 9.38120 | 86.24135 | 32862 ft | 500 kts | 70° |
| 2026-05-09 03:03 | 9.40456 | 86.30806 | 32868 ft | 501 kts | 70° |
| 2026-05-09 03:04 | 9.42787 | 86.37463 | 32872 ft | 500 kts | 70° |
| 2026-05-09 03:04 | 9.45105 | 86.44091 | 32872 ft | 499 kts | 70° |
| 2026-05-09 03:05 | 9.47425 | 86.50726 | 32871 ft | 500 kts | 70° |
| 2026-05-09 03:05 | 9.49748 | 86.57375 | 32870 ft | 501 kts | 70° |
| 2026-05-09 03:06 | 9.52074 | 86.64039 | 32871 ft | 501 kts | 70° |
| 2026-05-09 03:06 | 9.54388 | 86.70672 | 32869 ft | 501 kts | 70° |
| 2026-05-09 03:07 | 9.56710 | 86.77332 | 32864 ft | 501 kts | 70° |
| 2026-05-09 03:07 | 9.59032 | 86.83998 | 32854 ft | 500 kts | 70° |
| 2026-05-09 03:08 | 9.61341 | 86.90630 | 32850 ft | 499 kts | 70° |
| 2026-05-09 03:08 | 9.63665 | 86.97308 | 32850 ft | 500 kts | 70° |
| 2026-05-09 03:09 | 9.65974 | 87.03952 | 32852 ft | 502 kts | 70° |
| 2026-05-09 03:09 | 9.68285 | 87.10602 | 32852 ft | 501 kts | 70° |
| 2026-05-09 03:10 | 9.70592 | 87.17248 | 32853 ft | 498 kts | 70° |
| 2026-05-09 03:10 | 9.72897 | 87.23892 | 32860 ft | 498 kts | 70° |
| 2026-05-09 03:11 | 9.75197 | 87.30524 | 32868 ft | 500 kts | 70° |
| 2026-05-09 03:11 | 9.77550 | 87.37170 | 32866 ft | 501 kts | 69° |
| 2026-05-09 03:12 | 9.79988 | 87.43791 | 32869 ft | 500 kts | 69° |
| 2026-05-09 03:12 | 9.82448 | 87.50394 | 32869 ft | 499 kts | 69° |
| 2026-05-09 03:13 | 9.86126 | 87.60260 | 32873 ft | 499 kts | 69° |
| 2026-05-09 03:13 | 9.88569 | 87.66821 | 32870 ft | 500 kts | 69° |
| 2026-05-09 03:14 | 9.91031 | 87.73441 | 32870 ft | 500 kts | 69° |
| 2026-05-09 03:14 | 9.93488 | 87.80053 | 32873 ft | 500 kts | 69° |
| 2026-05-09 03:15 | 9.95932 | 87.86634 | 32864 ft | 500 kts | 69° |
| 2026-05-09 03:15 | 9.98383 | 87.93237 | 32858 ft | 500 kts | 69° |
| 2026-05-09 03:16 | 10.00841 | 87.99867 | 32851 ft | 500 kts | 69° |
| 2026-05-09 03:16 | 10.03292 | 88.06477 | 32848 ft | 501 kts | 69° |
| 2026-05-09 03:17 | 10.05742 | 88.13093 | 32849 ft | 500 kts | 69° |
| 2026-05-09 03:17 | 10.08175 | 88.19666 | 32847 ft | 500 kts | 69° |
| 2026-05-09 03:18 | 10.10632 | 88.26308 | 32848 ft | 501 kts | 69° |
| 2026-05-09 03:18 | 10.13081 | 88.32936 | 32848 ft | 501 kts | 69° |
| 2026-05-09 03:19 | 10.15522 | 88.39545 | 32849 ft | 500 kts | 69° |
| 2026-05-09 03:19 | 10.17957 | 88.46142 | 32849 ft | 499 kts | 69° |
| 2026-05-09 03:20 | 10.20404 | 88.52774 | 32848 ft | 500 kts | 69° |
| 2026-05-09 03:20 | 10.22836 | 88.59368 | 32849 ft | 501 kts | 69° |
| 2026-05-09 03:21 | 10.25290 | 88.66026 | 32850 ft | 502 kts | 69° |
| 2026-05-09 03:21 | 10.27728 | 88.72646 | 32849 ft | 502 kts | 69° |
| 2026-05-09 03:22 | 10.30172 | 88.79282 | 32848 ft | 501 kts | 69° |
| 2026-05-09 03:22 | 10.32628 | 88.85960 | 32850 ft | 501 kts | 69° |
| 2026-05-09 03:23 | 10.35076 | 88.92618 | 32850 ft | 502 kts | 69° |
| 2026-05-09 03:23 | 10.37518 | 88.99264 | 32850 ft | 501 kts | 69° |
| 2026-05-09 03:24 | 10.39950 | 89.05892 | 32853 ft | 500 kts | 69° |
| 2026-05-09 03:24 | 10.42375 | 89.12501 | 32851 ft | 500 kts | 69° |
| 2026-05-09 03:25 | 10.44805 | 89.19130 | 32860 ft | 499 kts | 69° |
| 2026-05-09 03:25 | 10.47237 | 89.25774 | 32868 ft | 500 kts | 69° |
| 2026-05-09 03:26 | 10.49658 | 89.32384 | 32872 ft | 500 kts | 69° |
| 2026-05-09 03:26 | 10.52074 | 89.38989 | 32869 ft | 501 kts | 69° |
| 2026-05-09 03:27 | 10.54501 | 89.45630 | 32870 ft | 500 kts | 69° |
| 2026-05-09 03:27 | 10.56916 | 89.52240 | 32871 ft | 499 kts | 69° |
| 2026-05-09 03:28 | 10.59326 | 89.58843 | 32870 ft | 499 kts | 69° |
| 2026-05-09 03:28 | 10.61751 | 89.65493 | 32868 ft | 499 kts | 69° |
| 2026-05-09 03:29 | 10.64160 | 89.72102 | 32862 ft | 500 kts | 69° |
| 2026-05-09 03:29 | 10.66579 | 89.78745 | 32850 ft | 502 kts | 69° |
| 2026-05-09 03:30 | 10.69003 | 89.85406 | 32849 ft | 502 kts | 69° |
| 2026-05-09 03:30 | 10.71420 | 89.92054 | 32847 ft | 501 kts | 70° |
| 2026-05-09 03:31 | 10.73842 | 89.98737 | 32849 ft | 501 kts | 70° |
| 2026-05-09 03:31 | 10.76181 | 90.05383 | 32850 ft | 501 kts | 70° |
| 2026-05-09 03:32 | 10.78497 | 90.12096 | 32851 ft | 501 kts | 71° |
| 2026-05-09 03:32 | 10.80795 | 90.18787 | 32853 ft | 500 kts | 71° |
| 2026-05-09 03:33 | 10.83087 | 90.25468 | 32854 ft | 502 kts | 71° |
| 2026-05-09 03:33 | 10.85392 | 90.32187 | 32858 ft | 503 kts | 70° |
| 2026-05-09 03:34 | 10.87691 | 90.38895 | 32856 ft | 502 kts | 70° |
| 2026-05-09 03:34 | 10.89987 | 90.45596 | 32859 ft | 501 kts | 70° |
| 2026-05-09 03:35 | 10.92277 | 90.52287 | 32859 ft | 500 kts | 71° |
| 2026-05-09 03:35 | 10.94572 | 90.59000 | 32861 ft | 500 kts | 71° |
| 2026-05-09 03:36 | 10.96852 | 90.65672 | 32868 ft | 500 kts | 71° |
| 2026-05-09 03:36 | 10.99128 | 90.72337 | 32869 ft | 501 kts | 71° |
| 2026-05-09 03:37 | 11.01414 | 90.79038 | 32871 ft | 502 kts | 71° |
| 2026-05-09 03:37 | 11.03702 | 90.85749 | 32871 ft | 501 kts | 71° |
| 2026-05-09 03:38 | 11.05986 | 90.92455 | 32871 ft | 500 kts | 71° |
| 2026-05-09 03:38 | 11.08262 | 90.99142 | 32871 ft | 500 kts | 71° |
| 2026-05-09 03:39 | 11.10543 | 91.05851 | 32872 ft | 500 kts | 71° |
| 2026-05-09 03:39 | 11.12820 | 91.12553 | 32871 ft | 500 kts | 71° |
| 2026-05-09 03:40 | 11.15080 | 91.19207 | 32871 ft | 499 kts | 71° |
| 2026-05-09 03:40 | 11.17360 | 91.25928 | 32871 ft | 499 kts | 71° |
| 2026-05-09 03:41 | 11.19618 | 91.32587 | 32871 ft | 499 kts | 71° |
| 2026-05-09 03:41 | 11.21877 | 91.39258 | 32871 ft | 500 kts | 71° |
| 2026-05-09 03:42 | 11.24138 | 91.45940 | 32872 ft | 500 kts | 71° |
| 2026-05-09 03:42 | 11.26411 | 91.52663 | 32873 ft | 500 kts | 70° |
| 2026-05-09 03:43 | 11.28687 | 91.59396 | 32876 ft | 499 kts | 71° |
| 2026-05-09 03:43 | 11.30933 | 91.66048 | 32876 ft | 499 kts | 71° |
| 2026-05-09 03:44 | 11.33190 | 91.72742 | 32876 ft | 499 kts | 71° |
| 2026-05-09 03:44 | 11.35436 | 91.79439 | 32868 ft | 500 kts | 71° |
| 2026-05-09 03:45 | 11.37597 | 91.86183 | 32868 ft | 500 kts | 72° |
| 2026-05-09 03:45 | 11.39708 | 91.92952 | 32878 ft | 502 kts | 72° |
| 2026-05-09 03:46 | 11.40763 | 91.96355 | 33073 ft | 502 kts | 72° |
| 2026-05-09 03:46 | 11.41811 | 91.99737 | 33399 ft | 499 kts | 72° |
| 2026-05-09 03:46 | 11.42860 | 92.03122 | 33698 ft | 496 kts | 72° |
| 2026-05-09 03:46 | 11.43896 | 92.06468 | 33914 ft | 496 kts | 72° |
| 2026-05-09 03:47 | 11.44939 | 92.09836 | 34090 ft | 496 kts | 72° |
| 2026-05-09 03:47 | 11.45979 | 92.13194 | 34284 ft | 496 kts | 72° |
| 2026-05-09 03:47 | 11.47006 | 92.16512 | 34493 ft | 495 kts | 72° |
| 2026-05-09 03:47 | 11.48054 | 92.19900 | 34693 ft | 494 kts | 72° |
| 2026-05-09 03:48 | 11.49074 | 92.23198 | 34836 ft | 494 kts | 72° |
| 2026-05-09 03:48 | 11.50116 | 92.26569 | 34857 ft | 497 kts | 72° |
| 2026-05-09 03:48 | 11.52196 | 92.33307 | 34855 ft | 496 kts | 72° |
| 2026-05-09 03:49 | 11.54259 | 92.39990 | 34855 ft | 491 kts | 72° |
| 2026-05-09 03:49 | 11.56304 | 92.46624 | 34857 ft | 491 kts | 72° |
| 2026-05-09 03:50 | 11.58355 | 92.53278 | 34858 ft | 492 kts | 72° |
| 2026-05-09 03:50 | 11.60400 | 92.59924 | 34862 ft | 492 kts | 72° |
| 2026-05-09 03:51 | 11.62462 | 92.66629 | 34867 ft | 492 kts | 72° |
| 2026-05-09 03:51 | 11.64521 | 92.73283 | 34873 ft | 492 kts | 71° |
| 2026-05-09 03:52 | 11.67003 | 92.79833 | 34874 ft | 492 kts | 67° |
| 2026-05-09 03:52 | 11.69799 | 92.86243 | 34873 ft | 492 kts | 65° |
| 2026-05-09 03:53 | 11.72646 | 92.92574 | 34866 ft | 491 kts | 65° |
| 2026-05-09 03:53 | 11.75503 | 92.98927 | 34860 ft | 490 kts | 65° |
| 2026-05-09 03:54 | 11.78346 | 93.05264 | 34856 ft | 490 kts | 65° |
| 2026-05-09 03:54 | 11.81190 | 93.11613 | 34854 ft | 491 kts | 65° |
| 2026-05-09 03:55 | 11.84038 | 93.17978 | 34863 ft | 493 kts | 65° |
| 2026-05-09 03:55 | 11.86879 | 93.24331 | 34866 ft | 493 kts | 65° |
| 2026-05-09 03:56 | 11.89729 | 93.30710 | 34869 ft | 492 kts | 65° |
| 2026-05-09 03:56 | 11.92556 | 93.37040 | 34867 ft | 490 kts | 65° |
| 2026-05-09 03:57 | 11.95385 | 93.43379 | 34871 ft | 490 kts | 65° |
| 2026-05-09 03:57 | 11.98231 | 93.49762 | 34875 ft | 490 kts | 65° |
| 2026-05-09 03:58 | 12.01048 | 93.56085 | 34876 ft | 492 kts | 65° |
| 2026-05-09 03:58 | 12.03882 | 93.62449 | 34875 ft | 492 kts | 66° |
| 2026-05-09 03:59 | 12.06721 | 93.68828 | 34876 ft | 491 kts | 66° |
| 2026-05-09 03:59 | 12.09540 | 93.75167 | 34875 ft | 491 kts | 66° |
| 2026-05-09 04:00 | 12.12370 | 93.81540 | 34865 ft | 493 kts | 66° |
| 2026-05-09 04:00 | 12.15216 | 93.87950 | 34855 ft | 494 kts | 66° |
| 2026-05-09 04:01 | 12.18044 | 93.94324 | 34855 ft | 493 kts | 66° |
| 2026-05-09 04:01 | 12.20898 | 94.00761 | 34854 ft | 494 kts | 66° |
| 2026-05-09 04:02 | 12.23762 | 94.07185 | 34854 ft | 494 kts | 66° |
| 2026-05-09 04:02 | 12.26620 | 94.13547 | 34854 ft | 494 kts | 66° |
| 2026-05-09 04:03 | 12.29498 | 94.19946 | 34853 ft | 495 kts | 66° |
| 2026-05-09 04:03 | 12.32396 | 94.26393 | 34853 ft | 495 kts | 66° |
| 2026-05-09 04:04 | 12.35270 | 94.32790 | 34853 ft | 495 kts | 66° |
| 2026-05-09 04:04 | 12.38151 | 94.39210 | 34854 ft | 495 kts | 66° |
| 2026-05-09 04:05 | 12.41024 | 94.45592 | 34854 ft | 495 kts | 65° |
| 2026-05-09 04:05 | 12.43928 | 94.52016 | 34854 ft | 495 kts | 65° |
| 2026-05-09 04:06 | 12.46822 | 94.58411 | 34853 ft | 496 kts | 66° |
| 2026-05-09 04:06 | 12.49730 | 94.64844 | 34854 ft | 497 kts | 66° |
| 2026-05-09 04:07 | 12.52636 | 94.71277 | 34854 ft | 497 kts | 66° |
| 2026-05-09 04:07 | 12.55532 | 94.77691 | 34854 ft | 497 kts | 66° |
| 2026-05-09 04:08 | 12.58444 | 94.84148 | 34854 ft | 497 kts | 66° |
| 2026-05-09 04:08 | 12.61336 | 94.90562 | 34853 ft | 497 kts | 66° |
| 2026-05-09 04:09 | 12.64228 | 94.96984 | 34854 ft | 498 kts | 66° |
| 2026-05-09 04:09 | 12.67139 | 95.03453 | 34856 ft | 498 kts | 66° |
| 2026-05-09 04:10 | 12.70048 | 95.09920 | 34856 ft | 498 kts | 66° |
| 2026-05-09 04:10 | 12.72926 | 95.16326 | 34857 ft | 496 kts | 66° |
| 2026-05-09 04:11 | 12.75814 | 95.22756 | 34861 ft | 496 kts | 66° |
| 2026-05-09 04:11 | 12.78694 | 95.29176 | 34868 ft | 496 kts | 66° |
| 2026-05-09 04:12 | 12.81582 | 95.35618 | 34871 ft | 496 kts | 66° |
| 2026-05-09 04:12 | 12.84462 | 95.42045 | 34877 ft | 496 kts | 66° |
| 2026-05-09 04:13 | 12.87348 | 95.48483 | 34875 ft | 495 kts | 66° |
| 2026-05-09 04:13 | 12.90250 | 95.54881 | 34874 ft | 495 kts | 65° |
| 2026-05-09 04:14 | 12.93169 | 95.61284 | 34874 ft | 495 kts | 65° |
| 2026-05-09 04:14 | 12.96099 | 95.67706 | 34873 ft | 495 kts | 66° |
| 2026-05-09 04:15 | 12.99013 | 95.74099 | 34865 ft | 495 kts | 66° |
| 2026-05-09 04:15 | 13.01907 | 95.80454 | 34857 ft | 494 kts | 66° |
| 2026-05-09 04:16 | 13.04819 | 95.86852 | 34856 ft | 493 kts | 66° |
| 2026-05-09 04:16 | 13.07735 | 95.93265 | 34855 ft | 493 kts | 66° |
| 2026-05-09 04:17 | 13.10637 | 95.99654 | 34855 ft | 494 kts | 66° |
| 2026-05-09 04:17 | 13.13542 | 96.06053 | 34855 ft | 494 kts | 66° |
| 2026-05-09 04:18 | 13.16442 | 96.12447 | 34854 ft | 494 kts | 66° |
| 2026-05-09 04:18 | 13.19336 | 96.18831 | 34854 ft | 493 kts | 66° |
| 2026-05-09 04:19 | 13.22237 | 96.25236 | 34854 ft | 492 kts | 66° |
| 2026-05-09 04:19 | 13.25108 | 96.31579 | 34854 ft | 492 kts | 66° |
| 2026-05-09 04:20 | 13.27989 | 96.37950 | 34854 ft | 492 kts | 66° |
| 2026-05-09 04:20 | 13.30889 | 96.44368 | 34855 ft | 492 kts | 66° |
| 2026-05-09 04:21 | 13.33774 | 96.50758 | 34854 ft | 492 kts | 66° |
| 2026-05-09 04:22 | 13.38107 | 96.60365 | 34852 ft | 494 kts | 66° |
| 2026-05-09 04:22 | 13.40994 | 96.66772 | 34853 ft | 495 kts | 66° |
| 2026-05-09 04:23 | 13.43869 | 96.73158 | 34856 ft | 496 kts | 66° |
| 2026-05-09 04:23 | 13.46773 | 96.79612 | 34855 ft | 495 kts | 66° |
| 2026-05-09 04:24 | 13.49650 | 96.86011 | 34854 ft | 494 kts | 66° |
| 2026-05-09 04:24 | 13.52535 | 96.92436 | 34856 ft | 494 kts | 66° |
| 2026-05-09 04:25 | 13.55413 | 96.98847 | 34859 ft | 494 kts | 66° |
| 2026-05-09 04:25 | 13.58291 | 97.05266 | 34864 ft | 494 kts | 66° |
| 2026-05-09 04:26 | 13.61182 | 97.11719 | 34869 ft | 495 kts | 66° |
| 2026-05-09 04:26 | 13.64048 | 97.18121 | 34873 ft | 496 kts | 66° |
| 2026-05-09 04:27 | 13.66942 | 97.24589 | 34875 ft | 495 kts | 66° |
| 2026-05-09 04:27 | 13.69823 | 97.31034 | 34875 ft | 494 kts | 66° |
| 2026-05-09 04:28 | 13.72690 | 97.37453 | 34876 ft | 494 kts | 66° |
| 2026-05-09 04:28 | 13.75560 | 97.43885 | 34876 ft | 495 kts | 66° |
| 2026-05-09 04:29 | 13.78437 | 97.50337 | 34872 ft | 495 kts | 66° |
| 2026-05-09 04:29 | 13.81303 | 97.56772 | 34866 ft | 494 kts | 66° |
| 2026-05-09 04:30 | 13.84156 | 97.63180 | 34866 ft | 494 kts | 66° |
| 2026-05-09 04:30 | 13.87029 | 97.69640 | 34864 ft | 495 kts | 66° |
| 2026-05-09 04:31 | 13.89911 | 97.76125 | 34862 ft | 496 kts | 66° |
| 2026-05-09 04:31 | 13.92767 | 97.82557 | 34860 ft | 492 kts | 66° |
| 2026-05-09 04:32 | 13.95613 | 97.88973 | 34857 ft | 492 kts | 66° |
| 2026-05-09 04:32 | 13.98459 | 97.95393 | 34855 ft | 493 kts | 66° |
| 2026-05-09 04:33 | 14.01323 | 98.01859 | 34855 ft | 494 kts | 66° |
| 2026-05-09 04:33 | 14.04163 | 98.08276 | 34861 ft | 494 kts | 66° |
| 2026-05-09 04:34 | 14.07006 | 98.14706 | 34864 ft | 493 kts | 66° |
| 2026-05-09 04:34 | 14.09827 | 98.21184 | 34868 ft | 492 kts | 68° |
| 2026-05-09 04:35 | 14.12067 | 98.27806 | 34878 ft | 492 kts | 73° |
| 2026-05-09 04:35 | 14.13951 | 98.34603 | 34888 ft | 492 kts | 75° |
| 2026-05-09 04:36 | 14.15750 | 98.41422 | 34891 ft | 493 kts | 75° |
| 2026-05-09 04:36 | 14.17546 | 98.48238 | 34902 ft | 492 kts | 75° |
| 2026-05-09 04:37 | 14.19352 | 98.55077 | 34919 ft | 492 kts | 75° |
| 2026-05-09 04:37 | 14.21144 | 98.61861 | 34937 ft | 493 kts | 75° |
| 2026-05-09 04:38 | 14.22950 | 98.68707 | 34952 ft | 493 kts | 75° |
| 2026-05-09 04:38 | 14.24754 | 98.75547 | 34973 ft | 492 kts | 75° |
| 2026-05-09 04:39 | 14.26544 | 98.82332 | 34967 ft | 493 kts | 75° |
| 2026-05-09 04:39 | 14.28347 | 98.89169 | 34948 ft | 493 kts | 75° |
| 2026-05-09 04:40 | 14.30158 | 98.96046 | 34929 ft | 493 kts | 75° |
| 2026-05-09 04:40 | 14.30982 | 99.02986 | 34917 ft | 491 kts | 95° |
| 2026-05-09 04:41 | 14.29808 | 99.09934 | 34918 ft | 491 kts | 104° |
| 2026-05-09 04:41 | 14.28083 | 99.16761 | 34916 ft | 492 kts | 105° |
| 2026-05-09 04:42 | 14.26316 | 99.23572 | 34920 ft | 491 kts | 105° |
| 2026-05-09 04:42 | 14.24576 | 99.30386 | 34908 ft | 491 kts | 104° |
| 2026-05-09 04:43 | 14.22856 | 99.37168 | 34903 ft | 491 kts | 104° |
| 2026-05-09 04:43 | 14.21132 | 99.43975 | 34899 ft | 492 kts | 104° |
| 2026-05-09 04:44 | 14.19388 | 99.50848 | 34888 ft | 491 kts | 104° |
| 2026-05-09 04:44 | 14.17662 | 99.57644 | 34880 ft | 492 kts | 104° |
| 2026-05-09 04:45 | 14.15916 | 99.64508 | 34876 ft | 493 kts | 104° |
| 2026-05-09 04:45 | 14.14175 | 99.71343 | 34870 ft | 492 kts | 104° |
| 2026-05-09 04:46 | 14.12441 | 99.78146 | 34862 ft | 492 kts | 104° |
| 2026-05-09 04:46 | 14.10687 | 99.85015 | 34862 ft | 493 kts | 104° |
| 2026-05-09 04:47 | 14.08943 | 99.91837 | 34854 ft | 493 kts | 104° |
| 2026-05-09 04:47 | 14.07193 | 99.98675 | 34839 ft | 493 kts | 104° |
| 2026-05-09 04:48 | 14.05437 | 100.05528 | 34836 ft | 493 kts | 104° |
| 2026-05-09 04:48 | 14.03688 | 100.12342 | 34836 ft | 493 kts | 104° |
| 2026-05-09 04:49 | 14.01933 | 100.19177 | 34836 ft | 493 kts | 104° |
| 2026-05-09 04:49 | 14.00174 | 100.26015 | 34837 ft | 493 kts | 104° |
| 2026-05-09 04:50 | 13.98403 | 100.32891 | 34842 ft | 492 kts | 104° |
| 2026-05-09 04:50 | 13.96645 | 100.39706 | 34849 ft | 492 kts | 104° |
| 2026-05-09 04:51 | 13.94893 | 100.46493 | 34856 ft | 492 kts | 104° |
| 2026-05-09 04:51 | 13.93130 | 100.53360 | 34860 ft | 493 kts | 103° |
| 2026-05-09 04:51 | 13.92614 | 100.56843 | 34865 ft | 492 kts | 92° |
| 2026-05-09 04:52 | 13.92690 | 100.60375 | 34864 ft | 492 kts | 82° |
| 2026-05-09 04:52 | 13.93471 | 100.63822 | 34867 ft | 493 kts | 70° |
| 2026-05-09 04:52 | 13.94911 | 100.66978 | 34865 ft | 494 kts | 59° |
| 2026-05-09 04:52 | 13.96973 | 100.69813 | 34869 ft | 495 kts | 48° |
| 2026-05-09 04:53 | 13.99435 | 100.72390 | 34867 ft | 497 kts | 44° |
| 2026-05-09 04:53 | 14.04543 | 100.77165 | 34861 ft | 497 kts | 43° |
| 2026-05-09 04:54 | 14.09695 | 100.81979 | 34858 ft | 495 kts | 43° |
| 2026-05-09 04:54 | 14.14755 | 100.86804 | 34847 ft | 494 kts | 43° |
| 2026-05-09 04:55 | 14.19803 | 100.91657 | 34851 ft | 495 kts | 43° |